NOAA Web Site Link Tides and Currents Home Page Transparent placeholder image

PORTS® Data Listing: 8447386 Fall River, MA

CO-OPS RAW PORTS DATA

************************      PRELIMINARY DATA      ************************** 

     THIS RAW DATA HAS NOT BEEN SUBJECT TO THE NATIONAL OCEAN SERVICE'S        
     QUALITY CONTROL OR QUALITY ASSURANCE PROCEDURES AND DOES NOT MEET         
     THE CRITERIA AND STANDARDS OF OFFICIAL NATIONAL OCEAN SERVICE             
     DATA.  IT IS RELEASED FOR LIMITED PUBLIC USE AS PRELIMINARY DATA TO       
     BE USED ONLY WITH APPROPRIATE CAUTION.                                    

************************      PRELIMINARY DATA      ************************** 


       CD   -   Calendar date
       T    -   Time
       TZ   -   Timezone
       PW   -   Predicted water level (feet above MLLW)
       OW   -   Observed water level (feet above MLLW)
       WS   -   Wind speed (knots)
       WD   -   Wind direction (degrees true)
       WG   -   Wind gust (knots)
       AT   -   Air temperature (degrees farenheit)
       WT   -   Water temperature (degrees farenheit)
       AP   -   Air pressure (millibars)
       SA   -   Salinty (PSU - Practical Salinity Units)
       SG   -   Specific gravity
       RH   -   Relative humidity
       AG   -   Air gap (feet)
       VI   -   Visibility (nautical miles)

       ** NOTE **
       A variable that has its data fields filled with "9"s, indicates that
       data was not collected for that sample period.
       **********


STATION NAME: Fall River (8447386)
****************************************************************************************************
    CD       T    TZ    PW     OW    WS   WD   WG    AT    WT    AP    SA    SG     RH    AG   VI
****************************************************************************************************
2019/07/14 22:54 EDT    1.64   2.14 -999 -999 -999  77.9  80.8 1014.1 -9.9 -9.999 -99.9 -99.99 -9.99
2019/07/14 23:00 EDT    1.51   2.01 -999 -999 -999  77.7  80.8 1014.1 -9.9 -9.999 -99.9 -99.99 -9.99
2019/07/14 23:06 EDT    1.40   1.88 -999 -999 -999  77.5  80.8 1014.2 -9.9 -9.999 -99.9 -99.99 -9.99
2019/07/14 23:12 EDT    1.28   1.76 -999 -999 -999  77.2  80.6 1014.3 -9.9 -9.999 -99.9 -99.99 -9.99
2019/07/14 23:18 EDT    1.18   1.65 -999 -999 -999  77.0  80.6 1014.3 -9.9 -9.999 -99.9 -99.99 -9.99
2019/07/14 23:24 EDT    1.08   1.54 -999 -999 -999  77.0  80.6 1014.3 -9.9 -9.999 -99.9 -99.99 -9.99
2019/07/14 23:30 EDT    0.98   1.43 -999 -999 -999  76.6  80.6 1014.3 -9.9 -9.999 -99.9 -99.99 -9.99
2019/07/14 23:36 EDT    0.90   1.33 -999 -999 -999  76.6  80.6 1014.3 -9.9 -9.999 -99.9 -99.99 -9.99
2019/07/14 23:42 EDT    0.82   1.23 -999 -999 -999  76.3  80.4 1014.4 -9.9 -9.999 -99.9 -99.99 -9.99
2019/07/14 23:48 EDT    0.75   1.14 -999 -999 -999  76.3  80.4 1014.5 -9.9 -9.999 -99.9 -99.99 -9.99
2019/07/14 23:54 EDT    0.69   1.05 -999 -999 -999  76.1  80.4 1014.3 -9.9 -9.999 -99.9 -99.99 -9.99
2019/07/15 00:00 EDT    0.63   0.97 -999 -999 -999  76.1  80.4 1014.4 -9.9 -9.999 -99.9 -99.99 -9.99
2019/07/15 00:06 EDT    0.59   0.92 -999 -999 -999  76.1  80.4 1014.5 -9.9 -9.999 -99.9 -99.99 -9.99
2019/07/15 00:12 EDT    0.55   0.87 -999 -999 -999  76.1  80.4 1014.4 -9.9 -9.999 -99.9 -99.99 -9.99
2019/07/15 00:18 EDT    0.51   0.83 -999 -999 -999  75.9  80.4 1014.3 -9.9 -9.999 -99.9 -99.99 -9.99
2019/07/15 00:24 EDT    0.49   0.80 -999 -999 -999  75.7  80.4 1014.4 -9.9 -9.999 -99.9 -99.99 -9.99
2019/07/15 00:30 EDT    0.47   0.77 -999 -999 -999  75.7  80.4 1014.6 -9.9 -9.999 -99.9 -99.99 -9.99
2019/07/15 00:36 EDT    0.46   0.75 -999 -999 -999  75.4  80.4 1014.7 -9.9 -9.999 -99.9 -99.99 -9.99
2019/07/15 00:42 EDT    0.45   0.74 -999 -999 -999  75.2  80.4 1014.7 -9.9 -9.999 -99.9 -99.99 -9.99
2019/07/15 00:48 EDT    0.45   0.73 -999 -999 -999  75.0  80.4 1014.7 -9.9 -9.999 -99.9 -99.99 -9.99
2019/07/15 00:54 EDT    0.45   0.74 -999 -999 -999  74.8  80.4 1014.8 -9.9 -9.999 -99.9 -99.99 -9.99
2019/07/15 01:00 EDT    0.46   0.74 -999 -999 -999  74.8  80.4 1014.8 -9.9 -9.999 -99.9 -99.99 -9.99
2019/07/15 01:06 EDT    0.48   0.76 -999 -999 -999  74.5  80.4 1014.8 -9.9 -9.999 -99.9 -99.99 -9.99
2019/07/15 01:12 EDT    0.49   0.78 -999 -999 -999  74.1  80.4 1014.8 -9.9 -9.999 -99.9 -99.99 -9.99
2019/07/15 01:18 EDT    0.51   0.81 -999 -999 -999  73.9  80.4 1014.9 -9.9 -9.999 -99.9 -99.99 -9.99
2019/07/15 01:24 EDT    0.53   0.84 -999 -999 -999  73.9  80.4 1014.9 -9.9 -9.999 -99.9 -99.99 -9.99
2019/07/15 01:30 EDT    0.55   0.87 -999 -999 -999  73.6  80.4 1015.0 -9.9 -9.999 -99.9 -99.99 -9.99
2019/07/15 01:36 EDT    0.58   0.92 -999 -999 -999  73.4  80.2 1015.1 -9.9 -9.999 -99.9 -99.99 -9.99
2019/07/15 01:42 EDT    0.60   0.95 -999 -999 -999  73.6  80.2 1015.0 -9.9 -9.999 -99.9 -99.99 -9.99
2019/07/15 01:48 EDT    0.63   0.99 -999 -999 -999  73.6  80.2 1015.1 -9.9 -9.999 -99.9 -99.99 -9.99
2019/07/15 01:54 EDT    0.65   1.03 -999 -999 -999  73.2  80.2 1015.1 -9.9 -9.999 -99.9 -99.99 -9.99
2019/07/15 02:00 EDT    0.68   1.09 -999 -999 -999  72.9  80.2 1015.2 -9.9 -9.999 -99.9 -99.99 -9.99
2019/07/15 02:06 EDT    0.71   1.14 -999 -999 -999  72.7  80.2 1015.3 -9.9 -9.999 -99.9 -99.99 -9.99
2019/07/15 02:12 EDT    0.73   1.18 -999 -999 -999  72.7  80.2 1015.3 -9.9 -9.999 -99.9 -99.99 -9.99
2019/07/15 02:18 EDT    0.76   1.23 -999 -999 -999  72.5  80.1 1015.3 -9.9 -9.999 -99.9 -99.99 -9.99
2019/07/15 02:24 EDT    0.78   1.27 -999 -999 -999  72.3  80.1 1015.4 -9.9 -9.999 -99.9 -99.99 -9.99
2019/07/15 02:30 EDT    0.80   1.30 -999 -999 -999  72.1  80.1 1015.5 -9.9 -9.999 -99.9 -99.99 -9.99
2019/07/15 02:36 EDT    0.83   1.34 -999 -999 -999  72.1  80.1 1015.5 -9.9 -9.999 -99.9 -99.99 -9.99
2019/07/15 02:42 EDT    0.85   1.38 -999 -999 -999  72.3  80.1 1015.4 -9.9 -9.999 -99.9 -99.99 -9.99
2019/07/15 02:48 EDT    0.87   1.40 -999 -999 -999  72.3  80.1 1015.5 -9.9 -9.999 -99.9 -99.99 -9.99
2019/07/15 02:54 EDT    0.90   1.41 -999 -999 -999  72.1  80.1 1015.5 -9.9 -9.999 -99.9 -99.99 -9.99
2019/07/15 03:00 EDT    0.92   1.42 -999 -999 -999  72.0  80.1 1015.6 -9.9 -9.999 -99.9 -99.99 -9.99
2019/07/15 03:06 EDT    0.95   1.43 -999 -999 -999  72.0  80.1 1015.6 -9.9 -9.999 -99.9 -99.99 -9.99
2019/07/15 03:12 EDT    0.98   1.44 -999 -999 -999  72.0  80.1 1015.7 -9.9 -9.999 -99.9 -99.99 -9.99
2019/07/15 03:18 EDT    1.00   1.46 -999 -999 -999  72.0  80.1 1015.7 -9.9 -9.999 -99.9 -99.99 -9.99
2019/07/15 03:24 EDT    1.03   1.48 -999 -999 -999  71.6  80.1 1015.8 -9.9 -9.999 -99.9 -99.99 -9.99
2019/07/15 03:30 EDT    1.07   1.50 -999 -999 -999  71.6  80.1 1015.8 -9.9 -9.999 -99.9 -99.99 -9.99
2019/07/15 03:36 EDT    1.10   1.51 -999 -999 -999  71.4  80.1 1015.9 -9.9 -9.999 -99.9 -99.99 -9.99
2019/07/15 03:42 EDT    1.14   1.52 -999 -999 -999  71.4  80.1 1015.8 -9.9 -9.999 -99.9 -99.99 -9.99
2019/07/15 03:48 EDT    1.19   1.54 -999 -999 -999  71.2  79.9 1015.8 -9.9 -9.999 -99.9 -99.99 -9.99
2019/07/15 03:54 EDT    1.24   1.56 -999 -999 -999  71.1  79.9 1015.8 -9.9 -9.999 -99.9 -99.99 -9.99
2019/07/15 04:00 EDT    1.29   1.59 -999 -999 -999  70.9  79.9 1015.8 -9.9 -9.999 -99.9 -99.99 -9.99
2019/07/15 04:06 EDT    1.35   1.62 -999 -999 -999  70.9  79.9 1015.8 -9.9 -9.999 -99.9 -99.99 -9.99
2019/07/15 04:12 EDT    1.41   1.66 -999 -999 -999  70.9  79.9 1015.9 -9.9 -9.999 -99.9 -99.99 -9.99
2019/07/15 04:18 EDT    1.48   1.72 -999 -999 -999  70.7  79.9 1015.9 -9.9 -9.999 -99.9 -99.99 -9.99
2019/07/15 04:24 EDT    1.55   1.77 -999 -999 -999  70.5  79.9 1016.1 -9.9 -9.999 -99.9 -99.99 -9.99
2019/07/15 04:30 EDT    1.63   1.82 -999 -999 -999  70.3  79.9 1016.1 -9.9 -9.999 -99.9 -99.99 -9.99
2019/07/15 04:36 EDT    1.71   1.88 -999 -999 -999  70.2  79.9 1016.1 -9.9 -9.999 -99.9 -99.99 -9.99
2019/07/15 04:42 EDT    1.80   1.93 -999 -999 -999  70.2  79.9 1016.1 -9.9 -9.999 -99.9 -99.99 -9.99
2019/07/15 04:48 EDT    1.89   2.01 -999 -999 -999  70.2  79.7 1016.3 -9.9 -9.999 -99.9 -99.99 -9.99
2019/07/15 04:54 EDT    1.99   2.10 -999 -999 -999  70.2  79.7 1016.3 -9.9 -9.999 -99.9 -99.99 -9.99
2019/07/15 05:00 EDT    2.09   2.18 -999 -999 -999  70.0  79.7 1016.5 -9.9 -9.999 -99.9 -99.99 -9.99
2019/07/15 05:06 EDT    2.20   2.26 -999 -999 -999  69.8  79.7 1016.6 -9.9 -9.999 -99.9 -99.99 -9.99
2019/07/15 05:12 EDT    2.31   2.36 -999 -999 -999  69.6  79.7 1016.7 -9.9 -9.999 -99.9 -99.99 -9.99
2019/07/15 05:18 EDT    2.42   2.46 -999 -999 -999  69.6  79.5 1016.7 -9.9 -9.999 -99.9 -99.99 -9.99
2019/07/15 05:24 EDT    2.54   2.56 -999 -999 -999  69.4  79.5 1016.8 -9.9 -9.999 -99.9 -99.99 -9.99
2019/07/15 05:30 EDT    2.66   2.68 -999 -999 -999  69.4  79.5 1016.8 -9.9 -9.999 -99.9 -99.99 -9.99
2019/07/15 05:36 EDT    2.78   2.80 -999 -999 -999  69.3  79.3 1016.8 -9.9 -9.999 -99.9 -99.99 -9.99
2019/07/15 05:42 EDT    2.90   2.92 -999 -999 -999  69.1  79.2 1016.8 -9.9 -9.999 -99.9 -99.99 -9.99
2019/07/15 05:48 EDT    3.02   3.05 -999 -999 -999  68.9  79.2 1016.8 -9.9 -9.999 -99.9 -99.99 -9.99
2019/07/15 05:54 EDT    3.14   3.18 -999 -999 -999  68.9  79.0 1016.8 -9.9 -9.999 -99.9 -99.99 -9.99
2019/07/15 06:00 EDT    3.25   3.32 -999 -999 -999  68.7  79.0 1016.8 -9.9 -9.999 -99.9 -99.99 -9.99
2019/07/15 06:06 EDT    3.37   3.46 -999 -999 -999  69.3  78.8 1016.9 -9.9 -9.999 -99.9 -99.99 -9.99
2019/07/15 06:12 EDT    3.48   3.59 -999 -999 -999  69.8  78.6 1016.9 -9.9 -9.999 -99.9 -99.99 -9.99
2019/07/15 06:18 EDT    3.59   3.71 -999 -999 -999  69.6  78.6 1016.9 -9.9 -9.999 -99.9 -99.99 -9.99
2019/07/15 06:24 EDT    3.70   3.85 -999 -999 -999  69.6  78.6 1016.9 -9.9 -9.999 -99.9 -99.99 -9.99
2019/07/15 06:30 EDT    3.80   3.97 -999 -999 -999  70.0  78.6 1016.9 -9.9 -9.999 -99.9 -99.99 -9.99
2019/07/15 06:36 EDT    3.89   4.09 -999 -999 -999  69.8  78.4 1016.9 -9.9 -9.999 -99.9 -99.99 -9.99
2019/07/15 06:42 EDT    3.98   4.21 -999 -999 -999  70.0  77.9 1016.9 -9.9 -9.999 -99.9 -99.99 -9.99
2019/07/15 06:48 EDT    4.06   4.31 -999 -999 -999  70.2  77.7 1017.0 -9.9 -9.999 -99.9 -99.99 -9.99
2019/07/15 06:54 EDT    4.14   4.39 -999 -999 -999  70.0  77.7 1017.1 -9.9 -9.999 -99.9 -99.99 -9.99
2019/07/15 07:00 EDT    4.21   4.48 -999 -999 -999  70.0  77.5 1017.2 -9.9 -9.999 -99.9 -99.99 -9.99
2019/07/15 07:06 EDT    4.27   4.54 -999 -999 -999  70.2  77.5 1017.2 -9.9 -9.999 -99.9 -99.99 -9.99
2019/07/15 07:12 EDT    4.32   4.61 -999 -999 -999  70.3  77.5 1017.3 -9.9 -9.999 -99.9 -99.99 -9.99
2019/07/15 07:18 EDT    4.37   4.67 -999 -999 -999  70.5  77.5 1017.3 -9.9 -9.999 -99.9 -99.99 -9.99
2019/07/15 07:24 EDT    4.41   4.72 -999 -999 -999  70.5  77.5 1017.4 -9.9 -9.999 -99.9 -99.99 -9.99
2019/07/15 07:30 EDT    4.43   4.75 -999 -999 -999  70.5  77.5 1017.4 -9.9 -9.999 -99.9 -99.99 -9.99
2019/07/15 07:36 EDT    4.45   4.79 -999 -999 -999  70.7  77.5 1017.3 -9.9 -9.999 -99.9 -99.99 -9.99
2019/07/15 07:42 EDT    4.47   4.83 -999 -999 -999  70.7  77.5 1017.3 -9.9 -9.999 -99.9 -99.99 -9.99
2019/07/15 07:48 EDT    4.47   4.83 -999 -999 -999  70.7  77.5 1017.3 -9.9 -9.999 -99.9 -99.99 -9.99
2019/07/15 07:54 EDT    4.46   4.84 -999 -999 -999  70.9  77.5 1017.3 -9.9 -9.999 -99.9 -99.99 -9.99
2019/07/15 08:00 EDT    4.45   4.85 -999 -999 -999  71.2  77.5 1017.3 -9.9 -9.999 -99.9 -99.99 -9.99
2019/07/15 08:06 EDT    4.42   4.83 -999 -999 -999  71.4  77.7 1017.3 -9.9 -9.999 -99.9 -99.99 -9.99
2019/07/15 08:12 EDT    4.39   4.81 -999 -999 -999  71.6  77.7 1017.4 -9.9 -9.999 -99.9 -99.99 -9.99
2019/07/15 08:18 EDT    4.35   4.76 -999 -999 -999  71.8  77.7 1017.4 -9.9 -9.999 -99.9 -99.99 -9.99
2019/07/15 08:24 EDT    4.30   4.73 -999 -999 -999  72.1  77.9 1017.5 -9.9 -9.999 -99.9 -99.99 -9.99
2019/07/15 08:30 EDT    4.25   4.68 -999 -999 -999  72.3  77.9 1017.4 -9.9 -9.999 -99.9 -99.99 -9.99
2019/07/15 08:36 EDT    4.18   4.60 -999 -999 -999  72.0  77.9 1017.5 -9.9 -9.999 -99.9 -99.99 -9.99
2019/07/15 08:42 EDT    4.11   4.53 -999 -999 -999  71.8  77.9 1017.4 -9.9 -9.999 -99.9 -99.99 -9.99
2019/07/15 08:48 EDT    4.03   4.44 -999 -999 -999  72.1  77.9 1017.4 -9.9 -9.999 -99.9 -99.99 -9.99
2019/07/15 08:54 EDT    3.95   4.35 -999 -999 -999  72.5  77.9 1017.4 -9.9 -9.999 -99.9 -99.99 -9.99
2019/07/15 09:00 EDT    3.86   4.25 -999 -999 -999  72.7  77.9 1017.5 -9.9 -9.999 -99.9 -99.99 -9.99
2019/07/15 09:06 EDT    3.76   4.15 -999 -999 -999  72.7  77.9 1017.4 -9.9 -9.999 -99.9 -99.99 -9.99
2019/07/15 09:12 EDT    3.66   4.05 -999 -999 -999  72.9  77.9 1017.5 -9.9 -9.999 -99.9 -99.99 -9.99
2019/07/15 09:18 EDT    3.55   3.93 -999 -999 -999  73.2  77.9 1017.5 -9.9 -9.999 -99.9 -99.99 -9.99
2019/07/15 09:24 EDT    3.43   3.81 -999 -999 -999  73.4  78.1 1017.5 -9.9 -9.999 -99.9 -99.99 -9.99
2019/07/15 09:30 EDT    3.32   3.69 -999 -999 -999  73.6  78.1 1017.5 -9.9 -9.999 -99.9 -99.99 -9.99
2019/07/15 09:36 EDT    3.19   3.57 -999 -999 -999  73.8  78.1 1017.5 -9.9 -9.999 -99.9 -99.99 -9.99
2019/07/15 09:42 EDT    3.07   3.46 -999 -999 -999  73.9  78.1 1017.4 -9.9 -9.999 -99.9 -99.99 -9.99
2019/07/15 09:48 EDT    2.94   3.33 -999 -999 -999  73.9  78.3 1017.4 -9.9 -9.999 -99.9 -99.99 -9.99
2019/07/15 09:54 EDT    2.81   3.20 -999 -999 -999  73.8  78.1 1017.3 -9.9 -9.999 -99.9 -99.99 -9.99
2019/07/15 10:00 EDT    2.67   3.07 -999 -999 -999  73.8  78.3 1017.3 -9.9 -9.999 -99.9 -99.99 -9.99
2019/07/15 10:06 EDT    2.54   2.94 -999 -999 -999  73.9  78.3 1017.3 -9.9 -9.999 -99.9 -99.99 -9.99
2019/07/15 10:12 EDT    2.40   2.82 -999 -999 -999  73.8  78.3 1017.4 -9.9 -9.999 -99.9 -99.99 -9.99
2019/07/15 10:18 EDT    2.26   2.69 -999 -999 -999  74.1  78.3 1017.4 -9.9 -9.999 -99.9 -99.99 -9.99
2019/07/15 10:24 EDT    2.12   2.57 -999 -999 -999  74.3  78.3 1017.3 -9.9 -9.999 -99.9 -99.99 -9.99
2019/07/15 10:30 EDT    1.99   2.45 -999 -999 -999  74.5  78.3 1017.4 -9.9 -9.999 -99.9 -99.99 -9.99
2019/07/15 10:36 EDT    1.85   2.34 -999 -999 -999  74.1  78.4 1017.4 -9.9 -9.999 -99.9 -99.99 -9.99
2019/07/15 10:42 EDT    1.72   2.22 -999 -999 -999  74.3  78.4 1017.4 -9.9 -9.999 -99.9 -99.99 -9.99
2019/07/15 10:48 EDT    1.59   2.08 -999 -999 -999  74.7  78.4 1017.3 -9.9 -9.999 -99.9 -99.99 -9.99
2019/07/15 10:54 EDT    1.46   1.97 -999 -999 -999  74.5  78.6 1017.3 -9.9 -9.999 -99.9 -99.99 -9.99
2019/07/15 11:00 EDT    1.34   1.84 -999 -999 -999  75.0  78.6 1017.3 -9.9 -9.999 -99.9 -99.99 -9.99
2019/07/15 11:06 EDT    1.22   1.71 -999 -999 -999  74.8  78.6 1017.3 -9.9 -9.999 -99.9 -99.99 -9.99
2019/07/15 11:12 EDT    1.10   1.59 -999 -999 -999  74.7  78.6 1017.3 -9.9 -9.999 -99.9 -99.99 -9.99
2019/07/15 11:18 EDT    0.99   1.49 -999 -999 -999  74.8  78.6 1017.3 -9.9 -9.999 -99.9 -99.99 -9.99
2019/07/15 11:24 EDT    0.89   1.40 -999 -999 -999  75.0  78.6 1017.2 -9.9 -9.999 -99.9 -99.99 -9.99
2019/07/15 11:30 EDT    0.80   1.29 -999 -999 -999  75.0  78.6 1017.3 -9.9 -9.999 -99.9 -99.99 -9.99
2019/07/15 11:36 EDT    0.71   1.19 -999 -999 -999  75.4  78.6 1017.2 -9.9 -9.999 -99.9 -99.99 -9.99
2019/07/15 11:42 EDT    0.63   1.08 -999 -999 -999  75.2  78.6 1017.2 -9.9 -9.999 -99.9 -99.99 -9.99
2019/07/15 11:48 EDT    0.55   0.98 -999 -999 -999  75.9  78.6 1017.1 -9.9 -9.999 -99.9 -99.99 -9.99
2019/07/15 11:54 EDT    0.49   0.89 -999 -999 -999  75.7  78.6 1017.2 -9.9 -9.999 -99.9 -99.99 -9.99
2019/07/15 12:00 EDT    0.43   0.82 -999 -999 -999  75.9  78.8 1017.1 -9.9 -9.999 -99.9 -99.99 -9.99
2019/07/15 12:06 EDT    0.38   0.75 -999 -999 -999  75.7  79.0 1017.1 -9.9 -9.999 -99.9 -99.99 -9.99
2019/07/15 12:12 EDT    0.34   0.69 -999 -999 -999  75.9  79.0 1017.1 -9.9 -9.999 -99.9 -99.99 -9.99
2019/07/15 12:18 EDT    0.31   0.63 -999 -999 -999  76.1  79.0 1017.0 -9.9 -9.999 -99.9 -99.99 -9.99
2019/07/15 12:24 EDT    0.29   0.56 -999 -999 -999  76.6  79.2 1017.0 -9.9 -9.999 -99.9 -99.99 -9.99
2019/07/15 12:30 EDT    0.28   0.51 -999 -999 -999  76.5  79.2 1016.9 -9.9 -9.999 -99.9 -99.99 -9.99
2019/07/15 12:36 EDT    0.27   0.47 -999 -999 -999  76.6  79.2 1016.9 -9.9 -9.999 -99.9 -99.99 -9.99
2019/07/15 12:42 EDT    0.27   0.44 -999 -999 -999  76.8  79.2 1016.9 -9.9 -9.999 -99.9 -99.99 -9.99
2019/07/15 12:48 EDT    0.28   0.43 -999 -999 -999  77.0  79.3 1016.8 -9.9 -9.999 -99.9 -99.99 -9.99
2019/07/15 12:54 EDT    0.30   0.41 -999 -999 -999  77.0  79.3 1016.9 -9.9 -9.999 -99.9 -99.99 -9.99
2019/07/15 13:00 EDT    0.33   0.39 -999 -999 -999  77.4  79.3 1016.8 -9.9 -9.999 -99.9 -99.99 -9.99
2019/07/15 13:06 EDT    0.36   0.38 -999 -999 -999  77.7  79.5 1016.8 -9.9 -9.999 -99.9 -99.99 -9.99
2019/07/15 13:12 EDT    0.39   0.39 -999 -999 -999  77.9  79.5 1016.7 -9.9 -9.999 -99.9 -99.99 -9.99
2019/07/15 13:18 EDT    0.43   0.39 -999 -999 -999  77.5  79.5 1016.7 -9.9 -9.999 -99.9 -99.99 -9.99
2019/07/15 13:24 EDT    0.48   0.42 -999 -999 -999  77.5  79.7 1016.7 -9.9 -9.999 -99.9 -99.99 -9.99
2019/07/15 13:30 EDT    0.53   0.47 -999 -999 -999  77.7  79.9 1016.7 -9.9 -9.999 -99.9 -99.99 -9.99
2019/07/15 13:36 EDT    0.58   0.50 -999 -999 -999  77.9  79.9 1016.7 -9.9 -9.999 -99.9 -99.99 -9.99
2019/07/15 13:42 EDT    0.64   0.55 -999 -999 -999  77.9  79.9 1016.7 -9.9 -9.999 -99.9 -99.99 -9.99
2019/07/15 13:48 EDT    0.69   0.60 -999 -999 -999  78.3  80.1 1016.6 -9.9 -9.999 -99.9 -99.99 -9.99
2019/07/15 13:54 EDT    0.75   0.68 -999 -999 -999  78.6  80.1 1016.5 -9.9 -9.999 -99.9 -99.99 -9.99
2019/07/15 14:00 EDT    0.81   0.75 -999 -999 -999  78.8  80.2 1016.4 -9.9 -9.999 -99.9 -99.99 -9.99
2019/07/15 14:06 EDT    0.87   0.83 -999 -999 -999  78.8  80.2 1016.3 -9.9 -9.999 -99.9 -99.99 -9.99
2019/07/15 14:12 EDT    0.93   0.92 -999 -999 -999  79.0  80.2 1016.2 -9.9 -9.999 -99.9 -99.99 -9.99
2019/07/15 14:18 EDT    0.99   1.01 -999 -999 -999  79.7  80.2 1016.2 -9.9 -9.999 -99.9 -99.99 -9.99
2019/07/15 14:24 EDT    1.05   1.10 -999 -999 -999  79.3  80.2 1016.2 -9.9 -9.999 -99.9 -99.99 -9.99
2019/07/15 14:30 EDT    1.11   1.18 -999 -999 -999  79.5  80.2 1016.2 -9.9 -9.999 -99.9 -99.99 -9.99
2019/07/15 14:36 EDT    1.16   1.27 -999 -999 -999  79.7  80.2 1016.1 -9.9 -9.999 -99.9 -99.99 -9.99
2019/07/15 14:42 EDT    1.22   1.35 -999 -999 -999  80.2  80.1 1016.1 -9.9 -9.999 -99.9 -99.99 -9.99
2019/07/15 14:48 EDT    1.27   1.42 -999 -999 -999  79.3  80.1 1016.1 -9.9 -9.999 -99.9 -99.99 -9.99
2019/07/15 14:54 EDT    1.32   1.50 -999 -999 -999  79.7  80.1 1016.1 -9.9 -9.999 -99.9 -99.99 -9.99
2019/07/15 15:00 EDT    1.37   1.58 -999 -999 -999  79.5  79.7 1016.1 -9.9 -9.999 -99.9 -99.99 -9.99
2019/07/15 15:06 EDT    1.42   1.65 -999 -999 -999  79.9  79.5 1016.0 -9.9 -9.999 -99.9 -99.99 -9.99
2019/07/15 15:12 EDT    1.46   1.72 -999 -999 -999  80.2  79.5 1016.0 -9.9 -9.999 -99.9 -99.99 -9.99
2019/07/15 15:18 EDT    1.51   1.79 -999 -999 -999  80.4  79.5 1015.9 -9.9 -9.999 -99.9 -99.99 -9.99
2019/07/15 15:24 EDT    1.55   1.85 -999 -999 -999  79.9  79.3 1015.9 -9.9 -9.999 -99.9 -99.99 -9.99
2019/07/15 15:30 EDT    1.59   1.92 -999 -999 -999  80.1  79.3 1015.9 -9.9 -9.999 -99.9 -99.99 -9.99
2019/07/15 15:36 EDT    1.64   2.00 -999 -999 -999  80.6  79.2 1015.9 -9.9 -9.999 -99.9 -99.99 -9.99
2019/07/15 15:42 EDT    1.68   2.07 -999 -999 -999  80.2  79.0 1015.9 -9.9 -9.999 -99.9 -99.99 -9.99
2019/07/15 15:48 EDT    1.73   2.15 -999 -999 -999  80.2  79.0 1015.9 -9.9 -9.999 -99.9 -99.99 -9.99
2019/07/15 15:54 EDT    1.77   2.23 -999 -999 -999  80.4  79.0 1015.8 -9.9 -9.999 -99.9 -99.99 -9.99
2019/07/15 16:00 EDT    1.82   2.29 -999 -999 -999  80.4  78.8 1015.8 -9.9 -9.999 -99.9 -99.99 -9.99
2019/07/15 16:06 EDT    1.87   2.36 -999 -999 -999  80.8  78.8 1015.8 -9.9 -9.999 -99.9 -99.99 -9.99
2019/07/15 16:12 EDT    1.92   2.42 -999 -999 -999  80.4  78.8 1015.9 -9.9 -9.999 -99.9 -99.99 -9.99
2019/07/15 16:18 EDT    1.98   2.48 -999 -999 -999  80.6  78.6 1015.7 -9.9 -9.999 -99.9 -99.99 -9.99
2019/07/15 16:24 EDT    2.04   2.56 -999 -999 -999  80.6  78.6 1015.7 -9.9 -9.999 -99.9 -99.99 -9.99
2019/07/15 16:30 EDT    2.10   2.64 -999 -999 -999  81.0  78.6 1015.7 -9.9 -9.999 -99.9 -99.99 -9.99
2019/07/15 16:36 EDT    2.17   2.70 -999 -999 -999  81.1  78.4 1015.8 -9.9 -9.999 -99.9 -99.99 -9.99
2019/07/15 16:42 EDT    2.24   2.75 -999 -999 -999  81.1  78.4 1015.7 -9.9 -9.999 -99.9 -99.99 -9.99
2019/07/15 16:48 EDT    2.32 -99.99 -999 -999 -999 -99.9 -99.9 -999.9 -9.9 -9.999 -99.9 -99.99 -9.99
2019/07/15 16:54 EDT    2.40 -99.99 -999 -999 -999 -99.9 -99.9 -999.9 -9.9 -9.999 -99.9 -99.99 -9.99
2019/07/15 17:00 EDT    2.49 -99.99 -999 -999 -999 -99.9 -99.9 -999.9 -9.9 -9.999 -99.9 -99.99 -9.99
2019/07/15 17:06 EDT    2.58 -99.99 -999 -999 -999 -99.9 -99.9 -999.9 -9.9 -9.999 -99.9 -99.99 -9.99
2019/07/15 17:12 EDT    2.68 -99.99 -999 -999 -999 -99.9 -99.9 -999.9 -9.9 -9.999 -99.9 -99.99 -9.99
2019/07/15 17:18 EDT    2.78 -99.99 -999 -999 -999 -99.9 -99.9 -999.9 -9.9 -9.999 -99.9 -99.99 -9.99
2019/07/15 17:24 EDT    2.88 -99.99 -999 -999 -999 -99.9 -99.9 -999.9 -9.9 -9.999 -99.9 -99.99 -9.99
2019/07/15 17:30 EDT    2.99 -99.99 -999 -999 -999 -99.9 -99.9 -999.9 -9.9 -9.999 -99.9 -99.99 -9.99
2019/07/15 17:36 EDT    3.10 -99.99 -999 -999 -999 -99.9 -99.9 -999.9 -9.9 -9.999 -99.9 -99.99 -9.99
2019/07/15 17:42 EDT    3.22 -99.99 -999 -999 -999 -99.9 -99.9 -999.9 -9.9 -9.999 -99.9 -99.99 -9.99
2019/07/15 17:48 EDT    3.34 -99.99 -999 -999 -999 -99.9 -99.9 -999.9 -9.9 -9.999 -99.9 -99.99 -9.99
2019/07/15 17:54 EDT    3.45 -99.99 -999 -999 -999 -99.9 -99.9 -999.9 -9.9 -9.999 -99.9 -99.99 -9.99
2019/07/15 18:00 EDT    3.57 -99.99 -999 -999 -999 -99.9 -99.9 -999.9 -9.9 -9.999 -99.9 -99.99 -9.99
2019/07/15 18:06 EDT    3.70 -99.99 -999 -999 -999 -99.9 -99.9 -999.9 -9.9 -9.999 -99.9 -99.99 -9.99
2019/07/15 18:12 EDT    3.82 -99.99 -999 -999 -999 -99.9 -99.9 -999.9 -9.9 -9.999 -99.9 -99.99 -9.99
2019/07/15 18:18 EDT    3.94 -99.99 -999 -999 -999 -99.9 -99.9 -999.9 -9.9 -9.999 -99.9 -99.99 -9.99
2019/07/15 18:24 EDT    4.06 -99.99 -999 -999 -999 -99.9 -99.9 -999.9 -9.9 -9.999 -99.9 -99.99 -9.99
2019/07/15 18:30 EDT    4.17 -99.99 -999 -999 -999 -99.9 -99.9 -999.9 -9.9 -9.999 -99.9 -99.99 -9.99
2019/07/15 18:36 EDT    4.29 -99.99 -999 -999 -999 -99.9 -99.9 -999.9 -9.9 -9.999 -99.9 -99.99 -9.99
2019/07/15 18:42 EDT    4.40 -99.99 -999 -999 -999 -99.9 -99.9 -999.9 -9.9 -9.999 -99.9 -99.99 -9.99
2019/07/15 18:48 EDT    4.50 -99.99 -999 -999 -999 -99.9 -99.9 -999.9 -9.9 -9.999 -99.9 -99.99 -9.99
2019/07/15 18:54 EDT    4.60 -99.99 -999 -999 -999 -99.9 -99.9 -999.9 -9.9 -9.999 -99.9 -99.99 -9.99
2019/07/15 19:00 EDT    4.70 -99.99 -999 -999 -999 -99.9 -99.9 -999.9 -9.9 -9.999 -99.9 -99.99 -9.99
2019/07/15 19:06 EDT    4.79 -99.99 -999 -999 -999 -99.9 -99.9 -999.9 -9.9 -9.999 -99.9 -99.99 -9.99
2019/07/15 19:12 EDT    4.88 -99.99 -999 -999 -999 -99.9 -99.9 -999.9 -9.9 -9.999 -99.9 -99.99 -9.99
2019/07/15 19:18 EDT    4.95 -99.99 -999 -999 -999 -99.9 -99.9 -999.9 -9.9 -9.999 -99.9 -99.99 -9.99
2019/07/15 19:24 EDT    5.02 -99.99 -999 -999 -999 -99.9 -99.9 -999.9 -9.9 -9.999 -99.9 -99.99 -9.99
2019/07/15 19:30 EDT    5.09 -99.99 -999 -999 -999 -99.9 -99.9 -999.9 -9.9 -9.999 -99.9 -99.99 -9.99
2019/07/15 19:36 EDT    5.14 -99.99 -999 -999 -999 -99.9 -99.9 -999.9 -9.9 -9.999 -99.9 -99.99 -9.99
2019/07/15 19:42 EDT    5.19 -99.99 -999 -999 -999 -99.9 -99.9 -999.9 -9.9 -9.999 -99.9 -99.99 -9.99
2019/07/15 19:48 EDT    5.22 -99.99 -999 -999 -999 -99.9 -99.9 -999.9 -9.9 -9.999 -99.9 -99.99 -9.99
2019/07/15 19:54 EDT    5.25 -99.99 -999 -999 -999 -99.9 -99.9 -999.9 -9.9 -9.999 -99.9 -99.99 -9.99
2019/07/15 20:00 EDT    5.27 -99.99 -999 -999 -999 -99.9 -99.9 -999.9 -9.9 -9.999 -99.9 -99.99 -9.99
2019/07/15 20:06 EDT    5.28 -99.99 -999 -999 -999 -99.9 -99.9 -999.9 -9.9 -9.999 -99.9 -99.99 -9.99
2019/07/15 20:12 EDT    5.29 -99.99 -999 -999 -999 -99.9 -99.9 -999.9 -9.9 -9.999 -99.9 -99.99 -9.99
2019/07/15 20:18 EDT    5.28 -99.99 -999 -999 -999 -99.9 -99.9 -999.9 -9.9 -9.999 -99.9 -99.99 -9.99
2019/07/15 20:24 EDT    5.27 -99.99 -999 -999 -999 -99.9 -99.9 -999.9 -9.9 -9.999 -99.9 -99.99 -9.99
2019/07/15 20:30 EDT    5.24 -99.99 -999 -999 -999 -99.9 -99.9 -999.9 -9.9 -9.999 -99.9 -99.99 -9.99
2019/07/15 20:36 EDT    5.21 -99.99 -999 -999 -999 -99.9 -99.9 -999.9 -9.9 -9.999 -99.9 -99.99 -9.99
2019/07/15 20:42 EDT    5.17 -99.99 -999 -999 -999 -99.9 -99.9 -999.9 -9.9 -9.999 -99.9 -99.99 -9.99
2019/07/15 20:48 EDT    5.12 -99.99 -999 -999 -999 -99.9 -99.9 -999.9 -9.9 -9.999 -99.9 -99.99 -9.99
2019/07/15 20:54 EDT    5.07 -99.99 -999 -999 -999 -99.9 -99.9 -999.9 -9.9 -9.999 -99.9 -99.99 -9.99
2019/07/15 21:00 EDT    5.00 -99.99 -999 -999 -999 -99.9 -99.9 -999.9 -9.9 -9.999 -99.9 -99.99 -9.99
2019/07/15 21:06 EDT    4.93 -99.99 -999 -999 -999 -99.9 -99.9 -999.9 -9.9 -9.999 -99.9 -99.99 -9.99
2019/07/15 21:12 EDT    4.85 -99.99 -999 -999 -999 -99.9 -99.9 -999.9 -9.9 -9.999 -99.9 -99.99 -9.99
2019/07/15 21:18 EDT    4.76 -99.99 -999 -999 -999 -99.9 -99.9 -999.9 -9.9 -9.999 -99.9 -99.99 -9.99
2019/07/15 21:24 EDT    4.67 -99.99 -999 -999 -999 -99.9 -99.9 -999.9 -9.9 -9.999 -99.9 -99.99 -9.99
2019/07/15 21:30 EDT    4.57 -99.99 -999 -999 -999 -99.9 -99.9 -999.9 -9.9 -9.999 -99.9 -99.99 -9.99
2019/07/15 21:36 EDT    4.46 -99.99 -999 -999 -999 -99.9 -99.9 -999.9 -9.9 -9.999 -99.9 -99.99 -9.99
2019/07/15 21:42 EDT    4.35 -99.99 -999 -999 -999 -99.9 -99.9 -999.9 -9.9 -9.999 -99.9 -99.99 -9.99
2019/07/15 21:48 EDT    4.23 -99.99 -999 -999 -999 -99.9 -99.9 -999.9 -9.9 -9.999 -99.9 -99.99 -9.99
2019/07/15 21:54 EDT    4.11 -99.99 -999 -999 -999 -99.9 -99.9 -999.9 -9.9 -9.999 -99.9 -99.99 -9.99
2019/07/15 22:00 EDT    3.98 -99.99 -999 -999 -999 -99.9 -99.9 -999.9 -9.9 -9.999 -99.9 -99.99 -9.99
2019/07/15 22:06 EDT    3.85 -99.99 -999 -999 -999 -99.9 -99.9 -999.9 -9.9 -9.999 -99.9 -99.99 -9.99
2019/07/15 22:12 EDT    3.71 -99.99 -999 -999 -999 -99.9 -99.9 -999.9 -9.9 -9.999 -99.9 -99.99 -9.99
2019/07/15 22:18 EDT    3.57 -99.99 -999 -999 -999 -99.9 -99.9 -999.9 -9.9 -9.999 -99.9 -99.99 -9.99
2019/07/15 22:24 EDT    3.42 -99.99 -999 -999 -999 -99.9 -99.9 -999.9 -9.9 -9.999 -99.9 -99.99 -9.99
2019/07/15 22:30 EDT    3.28 -99.99 -999 -999 -999 -99.9 -99.9 -999.9 -9.9 -9.999 -99.9 -99.99 -9.99
2019/07/15 22:36 EDT    3.13 -99.99 -999 -999 -999 -99.9 -99.9 -999.9 -9.9 -9.999 -99.9 -99.99 -9.99
2019/07/15 22:42 EDT    2.98 -99.99 -999 -999 -999 -99.9 -99.9 -999.9 -9.9 -9.999 -99.9 -99.99 -9.99
2019/07/15 22:48 EDT    2.83 -99.99 -999 -999 -999 -99.9 -99.9 -999.9 -9.9 -9.999 -99.9 -99.99 -9.99
2019/07/15 22:54 EDT    2.68 -99.99 -999 -999 -999 -99.9 -99.9 -999.9 -9.9 -9.999 -99.9 -99.99 -9.99

Revised: 08/08/2018
NOAA / National Ocean Service
Web site owner: Center for Operational Oceanographic Products and Services